sensor_id;sensor_type;location;lat;lon;timestamp;P1;durP1;ratioP1;P2;durP2;ratioP2
38182;SDS011;23991;52.430;10.586;2023-02-13T00:01:00;21.08;;;12.15;;
38182;SDS011;23991;52.430;10.586;2023-02-13T00:03:26;20.88;;;12.43;;
38182;SDS011;23991;52.430;10.586;2023-02-13T00:05:51;22.60;;;11.57;;
38182;SDS011;23991;52.430;10.586;2023-02-13T00:08:17;22.20;;;13.05;;
38182;SDS011;23991;52.430;10.586;2023-02-13T00:10:42;21.60;;;12.50;;
38182;SDS011;23991;52.430;10.586;2023-02-13T00:13:08;22.80;;;13.02;;
38182;SDS011;23991;52.430;10.586;2023-02-13T00:15:33;22.67;;;12.50;;
38182;SDS011;23991;52.430;10.586;2023-02-13T00:18:00;26.02;;;13.52;;
38182;SDS011;23991;52.430;10.586;2023-02-13T00:20:26;22.48;;;12.57;;
38182;SDS011;23991;52.430;10.586;2023-02-13T00:22:51;24.42;;;14.18;;
38182;SDS011;23991;52.430;10.586;2023-02-13T00:25:17;23.75;;;13.27;;
38182;SDS011;23991;52.430;10.586;2023-02-13T00:27:43;23.35;;;13.23;;
38182;SDS011;23991;52.430;10.586;2023-02-13T00:30:08;25.67;;;13.35;;
38182;SDS011;23991;52.430;10.586;2023-02-13T00:32:34;25.98;;;13.95;;
38182;SDS011;23991;52.430;10.586;2023-02-13T00:35:00;25.70;;;13.15;;
38182;SDS011;23991;52.430;10.586;2023-02-13T00:37:25;26.27;;;14.00;;
38182;SDS011;23991;52.430;10.586;2023-02-13T00:39:51;25.80;;;14.07;;
38182;SDS011;23991;52.430;10.586;2023-02-13T00:42:17;27.13;;;13.30;;
38182;SDS011;23991;52.430;10.586;2023-02-13T00:44:43;24.90;;;13.63;;
38182;SDS011;23991;52.430;10.586;2023-02-13T00:47:08;26.45;;;13.82;;
38182;SDS011;23991;52.430;10.586;2023-02-13T00:49:34;27.75;;;14.45;;
38182;SDS011;23991;52.430;10.586;2023-02-13T00:52:00;26.05;;;14.13;;
38182;SDS011;23991;52.430;10.586;2023-02-13T00:54:25;24.70;;;13.52;;
38182;SDS011;23991;52.430;10.586;2023-02-13T00:56:51;28.55;;;14.27;;
38182;SDS011;23991;52.430;10.586;2023-02-13T00:59:16;27.98;;;13.70;;
38182;SDS011;23991;52.430;10.586;2023-02-13T01:01:42;26.13;;;14.02;;
38182;SDS011;23991;52.430;10.586;2023-02-13T01:04:07;27.60;;;13.60;;
38182;SDS011;23991;52.430;10.586;2023-02-13T01:06:33;24.58;;;13.38;;
38182;SDS011;23991;52.430;10.586;2023-02-13T01:08:58;26.30;;;13.82;;
38182;SDS011;23991;52.430;10.586;2023-02-13T01:11:24;25.75;;;14.38;;
38182;SDS011;23991;52.430;10.586;2023-02-13T01:13:49;25.98;;;14.63;;
38182;SDS011;23991;52.430;10.586;2023-02-13T01:16:15;28.58;;;14.50;;
38182;SDS011;23991;52.430;10.586;2023-02-13T01:18:41;27.67;;;13.93;;
38182;SDS011;23991;52.430;10.586;2023-02-13T01:21:08;31.27;;;14.80;;
38182;SDS011;23991;52.430;10.586;2023-02-13T01:23:40;27.80;;;14.73;;
38182;SDS011;23991;52.430;10.586;2023-02-13T01:26:06;31.30;;;14.30;;
38182;SDS011;23991;52.430;10.586;2023-02-13T01:28:34;32.05;;;14.10;;
38182;SDS011;23991;52.430;10.586;2023-02-13T01:31:00;29.92;;;13.98;;
38182;SDS011;23991;52.430;10.586;2023-02-13T01:33:26;30.92;;;14.63;;
38182;SDS011;23991;52.430;10.586;2023-02-13T01:35:53;28.48;;;13.82;;
38182;SDS011;23991;52.430;10.586;2023-02-13T01:38:18;24.70;;;13.48;;
38182;SDS011;23991;52.430;10.586;2023-02-13T01:40:45;26.85;;;15.00;;
38182;SDS011;23991;52.430;10.586;2023-02-13T01:43:14;27.73;;;13.43;;
38182;SDS011;23991;52.430;10.586;2023-02-13T01:45:41;29.40;;;13.57;;
38182;SDS011;23991;52.430;10.586;2023-02-13T01:48:13;24.13;;;13.07;;
38182;SDS011;23991;52.430;10.586;2023-02-13T01:50:44;27.35;;;13.75;;
38182;SDS011;23991;52.430;10.586;2023-02-13T01:56:04;24.80;;;12.90;;
38182;SDS011;23991;52.430;10.586;2023-02-13T01:58:43;23.00;;;12.45;;
38182;SDS011;23991;52.430;10.586;2023-02-13T02:01:12;27.05;;;12.77;;
38182;SDS011;23991;52.430;10.586;2023-02-13T02:03:41;23.25;;;12.60;;
38182;SDS011;23991;52.430;10.586;2023-02-13T02:06:15;25.33;;;12.75;;
38182;SDS011;23991;52.430;10.586;2023-02-13T02:08:53;24.20;;;12.73;;
38182;SDS011;23991;52.430;10.586;2023-02-13T02:11:23;23.80;;;11.95;;
38182;SDS011;23991;52.430;10.586;2023-02-13T02:14:02;23.48;;;12.57;;
38182;SDS011;23991;52.430;10.586;2023-02-13T02:16:28;24.67;;;12.43;;
38182;SDS011;23991;52.430;10.586;2023-02-13T02:18:57;24.13;;;12.65;;
38182;SDS011;23991;52.430;10.586;2023-02-13T02:24:23;21.90;;;12.38;;
38182;SDS011;23991;52.430;10.586;2023-02-13T02:27:21;29.05;;;12.18;;
38182;SDS011;23991;52.430;10.586;2023-02-13T02:30:08;24.48;;;12.23;;
38182;SDS011;23991;52.430;10.586;2023-02-13T02:49:33;22.85;;;12.55;;
38182;SDS011;23991;52.430;10.586;2023-02-13T02:52:26;24.80;;;12.38;;
38182;SDS011;23991;52.430;10.586;2023-02-13T02:57:44;25.45;;;13.02;;
38182;SDS011;23991;52.430;10.586;2023-02-13T03:00:32;27.88;;;12.32;;
38182;SDS011;23991;52.430;10.586;2023-02-13T03:03:22;26.80;;;12.82;;
38182;SDS011;23991;52.430;10.586;2023-02-13T03:06:11;23.48;;;12.48;;
38182;SDS011;23991;52.430;10.586;2023-02-13T03:08:45;25.83;;;12.45;;
38182;SDS011;23991;52.430;10.586;2023-02-13T03:11:36;22.83;;;11.90;;
38182;SDS011;23991;52.430;10.586;2023-02-13T03:14:21;23.65;;;12.13;;
38182;SDS011;23991;52.430;10.586;2023-02-13T03:16:51;25.45;;;12.50;;
38182;SDS011;23991;52.430;10.586;2023-02-13T03:19:44;25.02;;;11.88;;
38182;SDS011;23991;52.430;10.586;2023-02-13T03:22:41;22.65;;;11.73;;
38182;SDS011;23991;52.430;10.586;2023-02-13T03:28:16;24.65;;;12.65;;
38182;SDS011;23991;52.430;10.586;2023-02-13T03:31:21;29.60;;;12.88;;
38182;SDS011;23991;52.430;10.586;2023-02-13T03:33:59;24.92;;;13.23;;
38182;SDS011;23991;52.430;10.586;2023-02-13T03:36:46;24.25;;;13.13;;
38182;SDS011;23991;52.430;10.586;2023-02-13T03:45:02;26.10;;;12.73;;
38182;SDS011;23991;52.430;10.586;2023-02-13T03:47:51;29.75;;;13.45;;
38182;SDS011;23991;52.430;10.586;2023-02-13T03:50:19;25.25;;;13.45;;
38182;SDS011;23991;52.430;10.586;2023-02-13T03:52:52;22.85;;;12.30;;
38182;SDS011;23991;52.430;10.586;2023-02-13T03:55:26;24.08;;;11.65;;
38182;SDS011;23991;52.430;10.586;2023-02-13T03:58:16;22.85;;;11.35;;
38182;SDS011;23991;52.430;10.586;2023-02-13T04:01:05;21.98;;;12.65;;
38182;SDS011;23991;52.430;10.586;2023-02-13T04:06:31;23.75;;;11.90;;
38182;SDS011;23991;52.430;10.586;2023-02-13T04:09:05;21.65;;;11.60;;
38182;SDS011;23991;52.430;10.586;2023-02-13T04:11:47;24.58;;;12.82;;
38182;SDS011;23991;52.430;10.586;2023-02-13T04:14:19;23.33;;;12.45;;
38182;SDS011;23991;52.430;10.586;2023-02-13T04:16:56;22.90;;;12.35;;
38182;SDS011;23991;52.430;10.586;2023-02-13T04:19:31;24.30;;;11.55;;
38182;SDS011;23991;52.430;10.586;2023-02-13T04:21:58;23.00;;;11.65;;
38182;SDS011;23991;52.430;10.586;2023-02-13T04:24:25;19.63;;;9.82;;
38182;SDS011;23991;52.430;10.586;2023-02-13T04:26:52;23.05;;;12.05;;
38182;SDS011;23991;52.430;10.586;2023-02-13T04:29:19;21.75;;;11.60;;
38182;SDS011;23991;52.430;10.586;2023-02-13T04:31:49;21.40;;;11.70;;
38182;SDS011;23991;52.430;10.586;2023-02-13T04:34:15;24.30;;;11.38;;
38182;SDS011;23991;52.430;10.586;2023-02-13T04:36:40;21.77;;;10.68;;
38182;SDS011;23991;52.430;10.586;2023-02-13T04:39:06;22.10;;;12.02;;
38182;SDS011;23991;52.430;10.586;2023-02-13T04:41:32;26.17;;;12.23;;
38182;SDS011;23991;52.430;10.586;2023-02-13T04:43:57;22.45;;;11.63;;
38182;SDS011;23991;52.430;10.586;2023-02-13T04:46:23;24.15;;;13.07;;
38182;SDS011;23991;52.430;10.586;2023-02-13T04:48:48;29.90;;;12.38;;
38182;SDS011;23991;52.430;10.586;2023-02-13T04:51:14;25.80;;;12.20;;
38182;SDS011;23991;52.430;10.586;2023-02-13T04:53:39;22.20;;;11.93;;
38182;SDS011;23991;52.430;10.586;2023-02-13T04:56:05;22.63;;;11.98;;
38182;SDS011;23991;52.430;10.586;2023-02-13T04:58:30;25.23;;;12.35;;
38182;SDS011;23991;52.430;10.586;2023-02-13T05:00:56;21.40;;;11.65;;
38182;SDS011;23991;52.430;10.586;2023-02-13T05:03:22;21.83;;;11.35;;
38182;SDS011;23991;52.430;10.586;2023-02-13T05:05:47;22.70;;;11.68;;
38182;SDS011;23991;52.430;10.586;2023-02-13T05:08:13;24.80;;;12.25;;
38182;SDS011;23991;52.430;10.586;2023-02-13T05:10:39;23.83;;;12.73;;
38182;SDS011;23991;52.430;10.586;2023-02-13T05:13:04;21.77;;;12.23;;
38182;SDS011;23991;52.430;10.586;2023-02-13T05:15:30;25.40;;;12.55;;
38182;SDS011;23991;52.430;10.586;2023-02-13T05:17:56;24.10;;;12.48;;
38182;SDS011;23991;52.430;10.586;2023-02-13T05:20:21;26.98;;;12.82;;
38182;SDS011;23991;52.430;10.586;2023-02-13T05:22:48;26.90;;;13.25;;
38182;SDS011;23991;52.430;10.586;2023-02-13T05:25:35;27.20;;;13.32;;
38182;SDS011;23991;52.430;10.586;2023-02-13T05:28:02;22.88;;;12.60;;
38182;SDS011;23991;52.430;10.586;2023-02-13T05:30:28;25.95;;;13.02;;
38182;SDS011;23991;52.430;10.586;2023-02-13T05:32:53;27.85;;;12.88;;
38182;SDS011;23991;52.430;10.586;2023-02-13T05:35:23;28.23;;;14.13;;
38182;SDS011;23991;52.430;10.586;2023-02-13T05:37:49;25.83;;;13.55;;
38182;SDS011;23991;52.430;10.586;2023-02-13T05:40:15;25.38;;;12.90;;
38182;SDS011;23991;52.430;10.586;2023-02-13T05:42:41;25.00;;;12.27;;
38182;SDS011;23991;52.430;10.586;2023-02-13T05:45:07;25.52;;;13.07;;
38182;SDS011;23991;52.430;10.586;2023-02-13T05:47:33;23.02;;;12.07;;
38182;SDS011;23991;52.430;10.586;2023-02-13T05:49:59;28.25;;;13.98;;
38182;SDS011;23991;52.430;10.586;2023-02-13T05:52:25;23.70;;;12.63;;
38182;SDS011;23991;52.430;10.586;2023-02-13T05:54:50;26.33;;;13.00;;
38182;SDS011;23991;52.430;10.586;2023-02-13T05:57:16;28.13;;;13.18;;
38182;SDS011;23991;52.430;10.586;2023-02-13T05:59:42;26.17;;;12.82;;
38182;SDS011;23991;52.430;10.586;2023-02-13T06:02:08;21.67;;;12.30;;
38182;SDS011;23991;52.430;10.586;2023-02-13T06:04:33;24.33;;;13.00;;
38182;SDS011;23991;52.430;10.586;2023-02-13T06:06:59;22.65;;;11.95;;
38182;SDS011;23991;52.430;10.586;2023-02-13T06:09:24;23.83;;;11.98;;
38182;SDS011;23991;52.430;10.586;2023-02-13T06:11:50;26.58;;;13.00;;
38182;SDS011;23991;52.430;10.586;2023-02-13T06:14:15;23.23;;;13.25;;
38182;SDS011;23991;52.430;10.586;2023-02-13T06:16:41;25.02;;;12.73;;
38182;SDS011;23991;52.430;10.586;2023-02-13T06:19:07;24.70;;;12.20;;
38182;SDS011;23991;52.430;10.586;2023-02-13T06:21:32;28.00;;;13.73;;
38182;SDS011;23991;52.430;10.586;2023-02-13T06:24:02;28.90;;;13.87;;
38182;SDS011;23991;52.430;10.586;2023-02-13T06:28:57;23.25;;;12.40;;
38182;SDS011;23991;52.430;10.586;2023-02-13T06:31:22;25.90;;;12.95;;
38182;SDS011;23991;52.430;10.586;2023-02-13T06:33:48;24.20;;;13.20;;
38182;SDS011;23991;52.430;10.586;2023-02-13T06:36:14;21.73;;;12.55;;
38182;SDS011;23991;52.430;10.586;2023-02-13T06:38:39;27.92;;;14.35;;
38182;SDS011;23991;52.430;10.586;2023-02-13T06:41:05;21.92;;;12.18;;
38182;SDS011;23991;52.430;10.586;2023-02-13T06:43:31;24.65;;;13.70;;
38182;SDS011;23991;52.430;10.586;2023-02-13T06:45:56;27.13;;;13.77;;
38182;SDS011;23991;52.430;10.586;2023-02-13T06:48:22;22.58;;;12.55;;
38182;SDS011;23991;52.430;10.586;2023-02-13T06:50:47;29.02;;;14.40;;
38182;SDS011;23991;52.430;10.586;2023-02-13T06:53:16;26.67;;;14.00;;
38182;SDS011;23991;52.430;10.586;2023-02-13T06:55:42;28.80;;;15.25;;
38182;SDS011;23991;52.430;10.586;2023-02-13T06:58:08;25.52;;;12.95;;
38182;SDS011;23991;52.430;10.586;2023-02-13T07:00:33;25.02;;;13.75;;
38182;SDS011;23991;52.430;10.586;2023-02-13T07:03:02;27.77;;;13.98;;
38182;SDS011;23991;52.430;10.586;2023-02-13T07:05:29;26.35;;;13.02;;
38182;SDS011;23991;52.430;10.586;2023-02-13T07:07:55;30.48;;;14.70;;
38182;SDS011;23991;52.430;10.586;2023-02-13T07:10:21;25.98;;;13.35;;
38182;SDS011;23991;52.430;10.586;2023-02-13T07:12:47;26.42;;;13.50;;
38182;SDS011;23991;52.430;10.586;2023-02-13T07:15:12;24.60;;;13.57;;
38182;SDS011;23991;52.430;10.586;2023-02-13T07:17:38;25.48;;;13.07;;
38182;SDS011;23991;52.430;10.586;2023-02-13T07:20:04;23.88;;;13.15;;
38182;SDS011;23991;52.430;10.586;2023-02-13T07:22:31;26.08;;;13.90;;
38182;SDS011;23991;52.430;10.586;2023-02-13T07:24:57;23.77;;;12.93;;
38182;SDS011;23991;52.430;10.586;2023-02-13T07:27:23;25.67;;;13.90;;
38182;SDS011;23991;52.430;10.586;2023-02-13T07:29:49;25.38;;;13.60;;
38182;SDS011;23991;52.430;10.586;2023-02-13T07:32:15;25.95;;;12.85;;
38182;SDS011;23991;52.430;10.586;2023-02-13T07:34:40;25.42;;;12.90;;
38182;SDS011;23991;52.430;10.586;2023-02-13T07:37:06;25.25;;;12.70;;
38182;SDS011;23991;52.430;10.586;2023-02-13T07:39:31;25.20;;;13.85;;
38182;SDS011;23991;52.430;10.586;2023-02-13T07:41:57;25.45;;;13.05;;
38182;SDS011;23991;52.430;10.586;2023-02-13T07:44:22;25.20;;;11.90;;
38182;SDS011;23991;52.430;10.586;2023-02-13T07:46:48;24.65;;;11.32;;
38182;SDS011;23991;52.430;10.586;2023-02-13T07:49:13;24.17;;;11.57;;
38182;SDS011;23991;52.430;10.586;2023-02-13T07:51:39;23.15;;;13.13;;
38182;SDS011;23991;52.430;10.586;2023-02-13T07:54:04;26.20;;;13.55;;
38182;SDS011;23991;52.430;10.586;2023-02-13T07:56:30;21.63;;;11.82;;
38182;SDS011;23991;52.430;10.586;2023-02-13T07:58:55;25.23;;;12.23;;
38182;SDS011;23991;52.430;10.586;2023-02-13T08:01:21;28.08;;;12.88;;
38182;SDS011;23991;52.430;10.586;2023-02-13T08:03:47;23.27;;;11.98;;
38182;SDS011;23991;52.430;10.586;2023-02-13T08:06:15;25.50;;;12.57;;
38182;SDS011;23991;52.430;10.586;2023-02-13T08:08:41;20.00;;;10.77;;
38182;SDS011;23991;52.430;10.586;2023-02-13T08:11:07;22.92;;;11.90;;
38182;SDS011;23991;52.430;10.586;2023-02-13T08:14:15;19.48;;;10.82;;
38182;SDS011;23991;52.430;10.586;2023-02-13T08:16:41;21.33;;;10.07;;
38182;SDS011;23991;52.430;10.586;2023-02-13T08:19:07;23.42;;;12.32;;
38182;SDS011;23991;52.430;10.586;2023-02-13T08:21:32;20.00;;;10.70;;
38182;SDS011;23991;52.430;10.586;2023-02-13T08:23:59;21.98;;;11.95;;
38182;SDS011;23991;52.430;10.586;2023-02-13T08:26:25;20.90;;;10.80;;
38182;SDS011;23991;52.430;10.586;2023-02-13T08:28:50;20.83;;;10.50;;
38182;SDS011;23991;52.430;10.586;2023-02-13T08:31:16;21.20;;;10.05;;
38182;SDS011;23991;52.430;10.586;2023-02-13T08:33:41;17.45;;;8.82;;
38182;SDS011;23991;52.430;10.586;2023-02-13T08:36:07;17.90;;;9.75;;
38182;SDS011;23991;52.430;10.586;2023-02-13T08:38:33;17.80;;;9.52;;
38182;SDS011;23991;52.430;10.586;2023-02-13T08:40:59;18.48;;;9.32;;
38182;SDS011;23991;52.430;10.586;2023-02-13T08:43:24;18.63;;;9.10;;
38182;SDS011;23991;52.430;10.586;2023-02-13T08:45:50;16.85;;;8.98;;
38182;SDS011;23991;52.430;10.586;2023-02-13T08:48:15;15.88;;;9.00;;
38182;SDS011;23991;52.430;10.586;2023-02-13T08:50:41;17.20;;;7.90;;
38182;SDS011;23991;52.430;10.586;2023-02-13T08:53:06;16.00;;;7.85;;
38182;SDS011;23991;52.430;10.586;2023-02-13T08:55:32;15.27;;;7.97;;
38182;SDS011;23991;52.430;10.586;2023-02-13T08:57:58;19.30;;;9.00;;
38182;SDS011;23991;52.430;10.586;2023-02-13T09:00:25;18.45;;;10.60;;
38182;SDS011;23991;52.430;10.586;2023-02-13T09:02:51;17.50;;;9.95;;
38182;SDS011;23991;52.430;10.586;2023-02-13T09:05:17;18.52;;;9.82;;
38182;SDS011;23991;52.430;10.586;2023-02-13T09:07:42;15.40;;;8.18;;
38182;SDS011;23991;52.430;10.586;2023-02-13T09:10:08;13.88;;;7.43;;
38182;SDS011;23991;52.430;10.586;2023-02-13T09:12:34;15.80;;;7.53;;
38182;SDS011;23991;52.430;10.586;2023-02-13T09:14:59;15.13;;;7.28;;
38182;SDS011;23991;52.430;10.586;2023-02-13T09:17:25;11.48;;;6.70;;
38182;SDS011;23991;52.430;10.586;2023-02-13T09:19:50;12.68;;;6.82;;
38182;SDS011;23991;52.430;10.586;2023-02-13T09:22:16;14.40;;;6.30;;
38182;SDS011;23991;52.430;10.586;2023-02-13T09:24:42;13.70;;;6.68;;
38182;SDS011;23991;52.430;10.586;2023-02-13T09:27:07;12.52;;;6.50;;
38182;SDS011;23991;52.430;10.586;2023-02-13T09:29:33;10.48;;;5.90;;
38182;SDS011;23991;52.430;10.586;2023-02-13T09:31:59;9.88;;;5.80;;
38182;SDS011;23991;52.430;10.586;2023-02-13T09:34:24;10.55;;;6.07;;
38182;SDS011;23991;52.430;10.586;2023-02-13T09:36:53;9.90;;;6.07;;
38182;SDS011;23991;52.430;10.586;2023-02-13T09:39:19;11.25;;;6.40;;
38182;SDS011;23991;52.430;10.586;2023-02-13T09:41:45;10.93;;;6.35;;
38182;SDS011;23991;52.430;10.586;2023-02-13T09:44:15;11.07;;;6.72;;
38182;SDS011;23991;52.430;10.586;2023-02-13T09:47:58;10.13;;;5.68;;
38182;SDS011;23991;52.430;10.586;2023-02-13T09:49:59;8.60;;;5.20;;
38182;SDS011;23991;52.430;10.586;2023-02-13T09:52:36;9.02;;;4.68;;
38182;SDS011;23991;52.430;10.586;2023-02-13T09:55:03;8.57;;;4.78;;
38182;SDS011;23991;52.430;10.586;2023-02-13T10:00:36;8.63;;;5.00;;
38182;SDS011;23991;52.430;10.586;2023-02-13T10:05:58;8.32;;;4.38;;
38182;SDS011;23991;52.430;10.586;2023-02-13T10:14:10;7.20;;;4.15;;
38182;SDS011;23991;52.430;10.586;2023-02-13T10:16:50;10.50;;;4.57;;
38182;SDS011;23991;52.430;10.586;2023-02-13T10:19:37;6.57;;;4.60;;
38182;SDS011;23991;52.430;10.586;2023-02-13T10:22:17;7.30;;;4.30;;
38182;SDS011;23991;52.430;10.586;2023-02-13T10:24:49;6.45;;;4.38;;
38182;SDS011;23991;52.430;10.586;2023-02-13T10:27:22;9.23;;;4.75;;
38182;SDS011;23991;52.430;10.586;2023-02-13T10:29:51;8.43;;;5.38;;
38182;SDS011;23991;52.430;10.586;2023-02-13T10:35:01;7.95;;;4.95;;
38182;SDS011;23991;52.430;10.586;2023-02-13T10:37:34;14.48;;;5.63;;
38182;SDS011;23991;52.430;10.586;2023-02-13T10:40:01;11.05;;;5.65;;
38182;SDS011;23991;52.430;10.586;2023-02-13T10:53:32;10.18;;;5.88;;
38182;SDS011;23991;52.430;10.586;2023-02-13T11:01:46;8.35;;;5.20;;
38182;SDS011;23991;52.430;10.586;2023-02-13T11:04:21;9.95;;;5.70;;
38182;SDS011;23991;52.430;10.586;2023-02-13T11:07:00;8.15;;;4.97;;
38182;SDS011;23991;52.430;10.586;2023-02-13T11:11:54;6.60;;;3.78;;
38182;SDS011;23991;52.430;10.586;2023-02-13T11:14:21;5.93;;;3.83;;
38182;SDS011;23991;52.430;10.586;2023-02-13T11:17:00;7.18;;;3.33;;
38182;SDS011;23991;52.430;10.586;2023-02-13T11:27:46;6.28;;;3.47;;
38182;SDS011;23991;52.430;10.586;2023-02-13T11:30:34;6.15;;;3.28;;
38182;SDS011;23991;52.430;10.586;2023-02-13T11:35:44;4.20;;;2.80;;
38182;SDS011;23991;52.430;10.586;2023-02-13T11:40:39;4.82;;;3.15;;
38182;SDS011;23991;52.430;10.586;2023-02-13T11:43:18;6.97;;;4.43;;
38182;SDS011;23991;52.430;10.586;2023-02-13T11:49:22;4.90;;;2.70;;
38182;SDS011;23991;52.430;10.586;2023-02-13T11:51:49;3.88;;;2.60;;
38182;SDS011;23991;52.430;10.586;2023-02-13T11:54:35;4.57;;;2.78;;
38182;SDS011;23991;52.430;10.586;2023-02-13T11:59:43;3.97;;;2.40;;
38182;SDS011;23991;52.430;10.586;2023-02-13T12:04:52;2.83;;;2.05;;
38182;SDS011;23991;52.430;10.586;2023-02-13T12:07:29;3.72;;;2.17;;
38182;SDS011;23991;52.430;10.586;2023-02-13T12:10:00;3.30;;;2.13;;
38182;SDS011;23991;52.430;10.586;2023-02-13T12:13:19;3.50;;;2.30;;
38182;SDS011;23991;52.430;10.586;2023-02-13T12:15:53;3.97;;;2.45;;
38182;SDS011;23991;52.430;10.586;2023-02-13T12:18:35;2.80;;;2.10;;
38182;SDS011;23991;52.430;10.586;2023-02-13T12:37:49;4.70;;;2.50;;
38182;SDS011;23991;52.430;10.586;2023-02-13T13:03:03;5.47;;;2.50;;
38182;SDS011;23991;52.430;10.586;2023-02-13T13:14:04;3.67;;;2.72;;
38182;SDS011;23991;52.430;10.586;2023-02-13T13:19:48;3.90;;;2.47;;
38182;SDS011;23991;52.430;10.586;2023-02-13T13:22:36;3.65;;;2.47;;
38182;SDS011;23991;52.430;10.586;2023-02-13T13:25:17;3.17;;;2.17;;
38182;SDS011;23991;52.430;10.586;2023-02-13T13:28:10;3.15;;;2.33;;
38182;SDS011;23991;52.430;10.586;2023-02-13T13:30:40;3.75;;;2.58;;
38182;SDS011;23991;52.430;10.586;2023-02-13T13:33:13;3.85;;;2.67;;
38182;SDS011;23991;52.430;10.586;2023-02-13T13:35:42;5.05;;;2.40;;
38182;SDS011;23991;52.430;10.586;2023-02-13T13:38:18;3.85;;;2.78;;
38182;SDS011;23991;52.430;10.586;2023-02-13T13:41:02;6.03;;;2.90;;
38182;SDS011;23991;52.430;10.586;2023-02-13T13:44:02;3.97;;;2.67;;
38182;SDS011;23991;52.430;10.586;2023-02-13T13:46:39;4.68;;;3.10;;
38182;SDS011;23991;52.430;10.586;2023-02-13T13:49:53;3.70;;;2.50;;
38182;SDS011;23991;52.430;10.586;2023-02-13T13:52:25;4.38;;;2.58;;
38182;SDS011;23991;52.430;10.586;2023-02-13T13:54:51;5.10;;;2.95;;
38182;SDS011;23991;52.430;10.586;2023-02-13T14:02:39;4.30;;;2.83;;
38182;SDS011;23991;52.430;10.586;2023-02-13T14:05:26;3.55;;;2.50;;
38182;SDS011;23991;52.430;10.586;2023-02-13T14:08:00;3.33;;;2.50;;
38182;SDS011;23991;52.430;10.586;2023-02-13T14:28:58;4.50;;;2.88;;
38182;SDS011;23991;52.430;10.586;2023-02-13T14:32:12;5.82;;;3.08;;
38182;SDS011;23991;52.430;10.586;2023-02-13T14:34:41;4.68;;;3.20;;
38182;SDS011;23991;52.430;10.586;2023-02-13T14:37:18;4.15;;;2.80;;
38182;SDS011;23991;52.430;10.586;2023-02-13T14:42:35;4.70;;;3.03;;
38182;SDS011;23991;52.430;10.586;2023-02-13T14:45:02;5.63;;;3.13;;
38182;SDS011;23991;52.430;10.586;2023-02-13T14:47:36;5.57;;;3.40;;
38182;SDS011;23991;52.430;10.586;2023-02-13T14:50:07;4.55;;;3.05;;
38182;SDS011;23991;52.430;10.586;2023-02-13T14:52:42;4.60;;;3.33;;
38182;SDS011;23991;52.430;10.586;2023-02-13T14:55:53;7.28;;;3.80;;
38182;SDS011;23991;52.430;10.586;2023-02-13T15:00:33;5.80;;;3.65;;
38182;SDS011;23991;52.430;10.586;2023-02-13T15:03:04;6.18;;;3.92;;
38182;SDS011;23991;52.430;10.586;2023-02-13T15:05:53;5.47;;;3.65;;
38182;SDS011;23991;52.430;10.586;2023-02-13T15:08:24;6.45;;;4.32;;
38182;SDS011;23991;52.430;10.586;2023-02-13T15:10:55;6.40;;;4.30;;
38182;SDS011;23991;52.430;10.586;2023-02-13T15:13:34;7.10;;;4.88;;
38182;SDS011;23991;52.430;10.586;2023-02-13T15:16:09;6.50;;;3.97;;
38182;SDS011;23991;52.430;10.586;2023-02-13T15:18:49;6.45;;;4.22;;
38182;SDS011;23991;52.430;10.586;2023-02-13T15:21:20;6.70;;;4.13;;
38182;SDS011;23991;52.430;10.586;2023-02-13T15:23:53;5.72;;;4.25;;
38182;SDS011;23991;52.430;10.586;2023-02-13T15:26:21;6.65;;;3.97;;
38182;SDS011;23991;52.430;10.586;2023-02-13T15:28:58;6.38;;;3.67;;
38182;SDS011;23991;52.430;10.586;2023-02-13T15:31:30;5.85;;;4.03;;
38182;SDS011;23991;52.430;10.586;2023-02-13T15:34:02;5.72;;;4.00;;
38182;SDS011;23991;52.430;10.586;2023-02-13T15:36:33;7.57;;;4.55;;
38182;SDS011;23991;52.430;10.586;2023-02-13T15:39:03;7.80;;;5.22;;
38182;SDS011;23991;52.430;10.586;2023-02-13T15:41:32;7.90;;;5.60;;
38182;SDS011;23991;52.430;10.586;2023-02-13T15:44:06;8.75;;;5.13;;
38182;SDS011;23991;52.430;10.586;2023-02-13T15:46:32;6.93;;;4.45;;
38182;SDS011;23991;52.430;10.586;2023-02-13T15:49:03;9.00;;;5.03;;
38182;SDS011;23991;52.430;10.586;2023-02-13T15:51:32;7.60;;;5.07;;
38182;SDS011;23991;52.430;10.586;2023-02-13T15:53:59;7.03;;;4.82;;
38182;SDS011;23991;52.430;10.586;2023-02-13T15:56:30;8.70;;;5.80;;
38182;SDS011;23991;52.430;10.586;2023-02-13T15:58:57;9.38;;;5.93;;
38182;SDS011;23991;52.430;10.586;2023-02-13T16:01:23;9.90;;;5.32;;
38182;SDS011;23991;52.430;10.586;2023-02-13T16:03:59;10.75;;;7.25;;
38182;SDS011;23991;52.430;10.586;2023-02-13T16:06:29;11.55;;;7.65;;
38182;SDS011;23991;52.430;10.586;2023-02-13T16:08:56;8.90;;;6.22;;
38182;SDS011;23991;52.430;10.586;2023-02-13T16:16:55;10.15;;;6.55;;
38182;SDS011;23991;52.430;10.586;2023-02-13T16:21:59;9.68;;;6.75;;
38182;SDS011;23991;52.430;10.586;2023-02-13T16:24:31;8.88;;;6.32;;
38182;SDS011;23991;52.430;10.586;2023-02-13T16:26:57;17.15;;;9.00;;
38182;SDS011;23991;52.430;10.586;2023-02-13T16:29:23;17.77;;;10.13;;
38182;SDS011;23991;52.430;10.586;2023-02-13T16:31:50;11.90;;;7.53;;
38182;SDS011;23991;52.430;10.586;2023-02-13T16:34:22;10.85;;;7.22;;
38182;SDS011;23991;52.430;10.586;2023-02-13T16:36:53;13.02;;;6.95;;
38182;SDS011;23991;52.430;10.586;2023-02-13T16:39:21;11.50;;;6.60;;
38182;SDS011;23991;52.430;10.586;2023-02-13T16:41:58;9.02;;;6.38;;
38182;SDS011;23991;52.430;10.586;2023-02-13T16:44:28;11.95;;;7.05;;
38182;SDS011;23991;52.430;10.586;2023-02-13T16:46:57;13.20;;;9.50;;
38182;SDS011;23991;52.430;10.586;2023-02-13T16:49:31;11.23;;;8.07;;
38182;SDS011;23991;52.430;10.586;2023-02-13T16:57:24;9.35;;;6.25;;
38182;SDS011;23991;52.430;10.586;2023-02-13T17:00:15;9.23;;;6.82;;
38182;SDS011;23991;52.430;10.586;2023-02-13T17:03:06;11.02;;;7.07;;
38182;SDS011;23991;52.430;10.586;2023-02-13T17:05:36;9.57;;;6.28;;
38182;SDS011;23991;52.430;10.586;2023-02-13T17:08:02;10.05;;;6.93;;
38182;SDS011;23991;52.430;10.586;2023-02-13T17:10:29;12.48;;;7.00;;
38182;SDS011;23991;52.430;10.586;2023-02-13T17:13:09;11.10;;;6.50;;
38182;SDS011;23991;52.430;10.586;2023-02-13T17:15:41;11.52;;;6.90;;
38182;SDS011;23991;52.430;10.586;2023-02-13T17:18:08;14.23;;;8.25;;
38182;SDS011;23991;52.430;10.586;2023-02-13T17:20:34;14.48;;;9.13;;
38182;SDS011;23991;52.430;10.586;2023-02-13T17:23:04;12.70;;;8.05;;
38182;SDS011;23991;52.430;10.586;2023-02-13T17:25:32;10.65;;;7.07;;
38182;SDS011;23991;52.430;10.586;2023-02-13T17:28:01;11.32;;;7.10;;
38182;SDS011;23991;52.430;10.586;2023-02-13T17:30:33;11.70;;;7.63;;
38182;SDS011;23991;52.430;10.586;2023-02-13T17:33:01;11.00;;;7.15;;
38182;SDS011;23991;52.430;10.586;2023-02-13T17:35:28;11.90;;;7.30;;
38182;SDS011;23991;52.430;10.586;2023-02-13T17:37:54;10.35;;;6.65;;
38182;SDS011;23991;52.430;10.586;2023-02-13T17:40:20;10.25;;;6.68;;
38182;SDS011;23991;52.430;10.586;2023-02-13T17:42:49;11.32;;;6.90;;
38182;SDS011;23991;52.430;10.586;2023-02-13T17:45:18;15.13;;;6.93;;
38182;SDS011;23991;52.430;10.586;2023-02-13T17:47:45;12.63;;;8.00;;